createdAt,value
2018-08-23T00:00:59.337Z,31.69
2018-08-23T00:01:59.356Z,31.30
2018-08-23T00:02:59.361Z,31.88
2018-08-23T00:03:59.354Z,32.75
2018-08-23T00:04:59.355Z,32.84
2018-08-23T00:05:59.394Z,33.03
2018-08-23T00:06:59.499Z,32.65
2018-08-23T00:07:59.402Z,33.91
2018-08-23T00:08:59.398Z,33.71
2018-08-23T00:09:59.458Z,33.71
2018-08-23T00:10:59.367Z,33.42
2018-08-23T00:11:59.371Z,32.75
2018-08-23T00:12:59.365Z,32.75
2018-08-23T00:13:59.389Z,32.65
2018-08-23T00:14:59.381Z,31.49
2018-08-23T00:15:59.377Z,31.59
2018-08-23T00:16:59.392Z,31.30
2018-08-23T00:17:59.397Z,31.59
2018-08-23T00:18:59.391Z,31.78
2018-08-23T00:19:59.504Z,31.88
2018-08-23T00:20:59.399Z,31.78
2018-08-23T00:21:59.399Z,31.49
2018-08-23T00:22:59.423Z,32.07
2018-08-23T00:23:59.456Z,31.78
2018-08-23T00:24:59.430Z,31.98
2018-08-23T00:25:59.401Z,31.40
2018-08-23T00:26:59.470Z,30.73
2018-08-23T00:27:59.440Z,30.91
2018-08-23T00:28:59.450Z,31.30
2018-08-23T00:29:59.455Z,31.88
2018-08-23T00:30:59.458Z,31.49
2018-08-23T00:31:59.472Z,31.69
2018-08-23T00:32:59.461Z,30.73
2018-08-23T00:33:59.504Z,31.01
2018-08-23T00:34:59.456Z,30.43
2018-08-23T00:35:59.474Z,30.91
2018-08-23T00:36:59.477Z,30.43
2018-08-23T00:37:59.465Z,29.08
2018-08-23T00:38:59.475Z,29.08
2018-08-23T00:39:59.488Z,29.08
2018-08-23T00:40:59.509Z,29.18
2018-08-23T00:41:59.476Z,29.38
2018-08-23T00:42:59.459Z,29.76
2018-08-23T00:43:59.478Z,29.47
2018-08-23T00:44:59.485Z,29.27
2018-08-23T00:45:59.505Z,29.28
2018-08-23T00:46:59.475Z,28.69
2018-08-23T00:47:59.552Z,28.97
2018-08-23T00:48:59.518Z,28.88
2018-08-23T00:49:59.507Z,28.11
2018-08-23T00:50:59.534Z,28.02
2018-08-23T00:51:59.504Z,28.49
2018-08-23T00:52:59.514Z,28.97
2018-08-23T00:53:59.535Z,28.49
2018-08-23T00:54:59.535Z,27.92
2018-08-23T00:55:59.528Z,28.11
2018-08-23T00:56:59.520Z,28.02
2018-08-23T00:57:59.526Z,28.02
2018-08-23T00:58:59.556Z,27.72
2018-08-23T00:59:59.561Z,28.20
2018-08-23T01:00:59.541Z,28.40
2018-08-23T01:01:59.534Z,28.78
2018-08-23T01:02:59.564Z,28.78
2018-08-23T01:03:59.539Z,28.97
2018-08-23T01:04:59.534Z,28.97
2018-08-23T01:05:59.547Z,28.97
2018-08-23T01:06:59.582Z,29.07
2018-08-23T01:07:59.568Z,28.78
2018-08-23T01:08:59.561Z,28.40
2018-08-23T01:09:59.577Z,27.92
2018-08-23T01:10:59.577Z,27.53
2018-08-23T01:11:59.569Z,27.05
2018-08-23T01:12:59.573Z,26.67
2018-08-23T01:13:59.682Z,26.28
2018-08-23T01:14:59.640Z,25.90
2018-08-23T01:15:59.571Z,25.99
2018-08-23T01:16:59.604Z,26.17
2018-08-23T01:17:59.572Z,26.65
2018-08-23T01:18:59.595Z,25.98
2018-08-23T01:19:59.607Z,25.88
2018-08-23T01:20:59.588Z,25.88
2018-08-23T01:21:59.598Z,25.98
2018-08-23T01:22:59.603Z,26.07
2018-08-23T01:23:59.606Z,26.36
2018-08-23T01:24:59.616Z,26.17
2018-08-23T01:25:59.622Z,25.88
2018-08-23T01:26:59.603Z,24.92
2018-08-23T01:27:59.616Z,24.34
2018-08-23T01:28:59.619Z,24.15
2018-08-23T01:29:59.633Z,24.15
2018-08-23T01:30:59.686Z,24.34
2018-08-23T01:31:59.662Z,24.82
2018-08-23T01:32:59.649Z,24.82
2018-08-23T01:33:59.636Z,25.11
2018-08-23T01:35:01.429Z,24.92
2018-08-23T01:35:59.629Z,24.24
2018-08-23T01:36:59.654Z,23.57
2018-08-23T01:37:59.685Z,23.77
2018-08-23T01:38:59.662Z,23.67
2018-08-23T01:39:59.645Z,24.15
2018-08-23T01:40:59.673Z,24.05
2018-08-23T01:42:00.312Z,24.34
2018-08-23T01:42:59.665Z,24.63
2018-08-23T01:43:59.690Z,23.28
2018-08-23T01:44:59.662Z,23.57
2018-08-23T01:45:59.667Z,23.09
2018-08-23T01:46:59.699Z,23.19
2018-08-23T01:47:59.706Z,23.19
2018-08-23T01:48:59.676Z,22.90
2018-08-23T01:49:59.715Z,23.28
2018-08-23T01:50:59.708Z,22.80
2018-08-23T01:51:59.681Z,22.61
2018-08-23T01:52:59.739Z,22.61
2018-08-23T01:53:59.774Z,22.61
2018-08-23T01:54:59.786Z,22.69
2018-08-23T01:55:59.711Z,22.80
2018-08-23T01:56:59.688Z,22.71
2018-08-23T01:57:59.824Z,22.50
2018-08-23T01:58:59.696Z,22.61
2018-08-23T01:59:59.732Z,22.71
2018-08-23T02:00:59.710Z,22.32
2018-08-23T02:01:59.743Z,22.69
2018-08-23T02:02:59.717Z,22.41
2018-08-23T02:03:59.755Z,22.71
2018-08-23T02:04:59.737Z,22.41
2018-08-23T02:05:59.723Z,22.41
2018-08-23T02:06:59.730Z,22.60
2018-08-23T02:07:59.730Z,22.41
2018-08-23T02:09:00.314Z,22.50
2018-08-23T02:09:59.734Z,22.22
2018-08-23T02:10:59.755Z,21.54
2018-08-23T02:11:59.752Z,21.25
2018-08-23T02:12:59.754Z,21.15
2018-08-23T02:13:59.760Z,21.25
2018-08-23T02:14:59.773Z,21.15
2018-08-23T02:15:59.753Z,20.58
2018-08-23T02:16:59.762Z,20.77
2018-08-23T02:17:59.769Z,20.67
2018-08-23T02:18:59.801Z,21.06
2018-08-23T02:19:59.872Z,20.77
2018-08-23T02:20:59.772Z,20.67
2018-08-23T02:21:59.765Z,20.20
2018-08-23T02:22:59.810Z,20.20
2018-08-23T02:23:59.775Z,19.13
2018-08-23T02:24:59.786Z,19.33
2018-08-23T02:25:59.867Z,19.52
2018-08-23T02:26:59.816Z,19.71
2018-08-23T02:27:59.808Z,19.62
2018-08-23T02:28:59.791Z,19.43
2018-08-23T02:29:59.800Z,19.33
2018-08-23T02:30:59.822Z,17.97
2018-08-23T02:31:59.804Z,17.78
2018-08-23T02:32:59.794Z,17.21
2018-08-23T02:33:59.796Z,16.82
2018-08-23T02:34:59.801Z,16.82
2018-08-23T02:35:59.861Z,16.53
2018-08-23T02:36:59.823Z,16.44
2018-08-23T02:37:59.828Z,16.63
2018-08-23T02:38:59.871Z,16.53
2018-08-23T02:39:59.851Z,16.63
2018-08-23T02:40:59.843Z,16.44
2018-08-23T02:41:59.852Z,16.72
2018-08-23T02:42:59.840Z,16.24
2018-08-23T02:43:59.873Z,16.24
2018-08-23T02:44:59.875Z,16.24
2018-08-23T02:45:59.830Z,15.38
2018-08-23T02:46:59.870Z,16.15
2018-08-23T02:47:59.862Z,15.57
2018-08-23T02:48:59.862Z,15.38
2018-08-23T02:49:59.865Z,15.57
2018-08-23T02:50:59.884Z,15.00
2018-08-23T02:51:59.921Z,14.80
2018-08-23T02:52:59.896Z,14.90
2018-08-23T02:53:59.896Z,14.32
2018-08-23T02:54:59.905Z,14.32
2018-08-23T02:55:59.882Z,14.23
2018-08-23T02:56:59.883Z,13.93
2018-08-23T02:57:59.868Z,13.65
2018-08-23T02:58:59.889Z,13.36
2018-08-23T02:59:59.918Z,13.26
2018-08-23T03:00:59.893Z,13.26
2018-08-23T03:01:59.961Z,13.55
2018-08-23T03:02:59.897Z,12.77
2018-08-23T03:03:59.901Z,12.39
2018-08-23T03:04:59.905Z,12.10
2018-08-23T03:05:59.942Z,11.43
2018-08-23T03:06:59.940Z,11.24
2018-08-23T03:07:59.944Z,11.05
2018-08-23T03:08:59.923Z,10.76
2018-08-23T03:09:59.923Z,10.18
2018-08-23T03:10:59.931Z,10.18
2018-08-23T03:11:59.925Z,9.80
2018-08-23T03:12:59.940Z,9.89
2018-08-23T03:13:59.942Z,10.08
2018-08-23T03:14:59.948Z,10.28
2018-08-23T03:15:59.955Z,10.47
2018-08-23T03:16:59.921Z,10.57
2018-08-23T03:17:59.940Z,10.57
2018-08-23T03:18:59.952Z,10.57
2018-08-23T03:20:00.029Z,10.38
2018-08-23T03:20:59.935Z,10.76
2018-08-23T03:21:59.956Z,10.57
2018-08-23T03:22:59.982Z,10.47
2018-08-23T03:24:00.010Z,10.18
2018-08-23T03:24:59.962Z,10.57
2018-08-23T03:25:59.963Z,10.47
2018-08-23T03:26:59.999Z,9.80
2018-08-23T03:27:59.972Z,9.80
2018-08-23T03:28:59.963Z,9.80
2018-08-23T03:30:00.105Z,9.80
2018-08-23T03:30:59.981Z,9.61
2018-08-23T03:32:00.011Z,9.70
2018-08-23T03:32:59.998Z,9.61
2018-08-23T03:33:59.972Z,9.80
2018-08-23T03:34:59.994Z,9.80
2018-08-23T03:35:59.992Z,9.61
2018-08-23T03:37:00.025Z,9.70
2018-08-23T03:37:59.990Z,10.08
2018-08-23T03:38:59.987Z,10.27
2018-08-23T03:40:00.002Z,9.99
2018-08-23T03:40:59.990Z,9.70
2018-08-23T03:42:00.015Z,9.70
2018-08-23T03:43:00.096Z,9.50
2018-08-23T03:44:00.076Z,9.31
2018-08-23T03:45:00.005Z,9.03
2018-08-23T03:46:00.069Z,8.55
2018-08-23T03:47:00.038Z,8.64
2018-08-23T03:48:00.071Z,9.22
2018-08-23T03:49:00.028Z,9.03
2018-08-23T03:50:00.027Z,8.83
2018-08-23T03:51:00.040Z,8.26
2018-08-23T03:52:00.057Z,8.64
2018-08-23T03:53:00.858Z,8.54
2018-08-23T03:54:00.026Z,8.26
2018-08-23T03:55:00.041Z,8.35
2018-08-23T03:56:00.080Z,8.26
2018-08-23T03:57:00.046Z,8.45
2018-08-23T03:58:00.064Z,8.45
2018-08-23T03:59:00.059Z,8.45
2018-08-23T04:00:00.053Z,8.54
2018-08-23T04:01:00.075Z,8.54
2018-08-23T04:02:00.110Z,8.26
2018-08-23T04:03:00.062Z,8.45
2018-08-23T04:04:00.059Z,8.64
2018-08-23T04:05:00.071Z,7.68
2018-08-23T04:06:00.068Z,7.78
2018-08-23T04:07:00.064Z,7.59
2018-08-23T04:08:00.101Z,7.01
2018-08-23T04:09:00.084Z,6.82
2018-08-23T04:10:00.091Z,7.01
2018-08-23T04:11:00.867Z,6.82
2018-08-23T04:12:00.090Z,6.82
2018-08-23T04:13:00.117Z,6.24
2018-08-23T04:14:00.118Z,6.43
2018-08-23T04:15:00.102Z,6.43
2018-08-23T04:16:00.094Z,6.24
2018-08-23T04:17:00.149Z,6.34
2018-08-23T04:18:00.123Z,6.15
2018-08-23T04:19:00.103Z,6.05
2018-08-23T04:20:00.107Z,6.05
2018-08-23T04:21:00.117Z,5.76
2018-08-23T04:22:00.118Z,5.57
2018-08-23T04:23:00.200Z,5.57
2018-08-23T04:24:00.875Z,5.28
2018-08-23T04:25:00.125Z,5.38
2018-08-23T04:26:00.143Z,4.90
2018-08-23T04:27:00.120Z,5.57
2018-08-23T04:28:00.157Z,4.90
2018-08-23T04:29:00.135Z,4.80
2018-08-23T04:30:00.149Z,5.18
2018-08-23T04:31:00.138Z,4.99
2018-08-23T04:32:00.144Z,4.99
2018-08-23T04:33:00.164Z,4.90
2018-08-23T04:34:00.145Z,4.61
2018-08-23T04:35:00.144Z,4.41
2018-08-23T04:36:00.179Z,4.32
2018-08-23T04:37:00.173Z,4.03
2018-08-23T04:38:00.180Z,3.74
2018-08-23T04:39:00.175Z,4.13
2018-08-23T04:40:00.179Z,4.41
2018-08-23T04:41:00.173Z,4.51
2018-08-23T04:42:00.180Z,4.61
2018-08-23T04:43:00.195Z,4.90
2018-08-23T04:44:00.197Z,4.41
2018-08-23T04:45:00.260Z,4.51
2018-08-23T04:46:00.172Z,4.51
2018-08-23T04:47:00.275Z,4.70
2018-08-23T04:48:00.188Z,4.61
2018-08-23T04:49:00.191Z,4.70
2018-08-23T04:50:00.200Z,4.51
2018-08-23T04:51:00.192Z,4.80
2018-08-23T04:52:00.297Z,4.70
2018-08-23T04:53:00.197Z,4.61
2018-08-23T04:54:00.248Z,4.41
2018-08-23T04:55:00.201Z,4.41
2018-08-23T04:56:00.244Z,4.41
2018-08-23T04:57:00.268Z,4.51
2018-08-23T04:58:00.228Z,4.13
2018-08-23T04:59:00.226Z,4.13
2018-08-23T05:00:00.219Z,4.41
2018-08-23T05:01:00.241Z,4.61
2018-08-23T05:02:00.259Z,4.51
2018-08-23T05:03:00.249Z,4.99
2018-08-23T05:04:00.333Z,5.47
2018-08-23T05:05:00.364Z,5.28
2018-08-23T05:06:00.252Z,5.47
2018-08-23T05:07:00.257Z,5.86
2018-08-23T05:08:00.233Z,5.66
2018-08-23T05:09:00.283Z,5.96
2018-08-23T05:10:00.249Z,6.24
2018-08-23T05:11:00.244Z,6.72
2018-08-23T05:12:00.275Z,6.92
2018-08-23T05:13:00.241Z,7.88
2018-08-23T05:14:00.327Z,7.98
2018-08-23T05:15:00.298Z,9.32
2018-08-23T05:16:00.260Z,9.32
2018-08-23T05:17:00.284Z,9.70
2018-08-23T05:18:00.891Z,10.28
2018-08-23T05:19:00.302Z,11.05
2018-08-23T05:20:00.279Z,11.72
2018-08-23T05:21:00.305Z,13.26
2018-08-23T05:22:00.385Z,13.65
2018-08-23T05:23:00.340Z,15.09
2018-08-23T05:24:00.285Z,15.39
2018-08-23T05:25:00.294Z,16.06
2018-08-23T05:26:00.293Z,16.73
2018-08-23T05:27:00.298Z,17.31
2018-08-23T05:28:00.313Z,17.60
2018-08-23T05:29:00.318Z,17.88
2018-08-23T05:30:00.342Z,19.04
2018-08-23T05:31:00.356Z,19.33
2018-08-23T05:32:00.318Z,19.43
2018-08-23T05:33:00.331Z,20.48
2018-08-23T05:34:00.338Z,20.67
2018-08-23T05:35:00.334Z,21.36
2018-08-23T05:36:00.329Z,23.09
2018-08-23T05:37:00.355Z,26.28
2018-08-23T05:38:00.356Z,30.43
2018-08-23T05:39:00.342Z,34.58
2018-08-23T05:40:00.380Z,37.10
2018-08-23T05:41:00.897Z,42.40
2018-08-23T05:42:00.361Z,46.15
2018-08-23T05:43:00.391Z,45.39
2018-08-23T05:44:00.360Z,46.35
2018-08-23T05:45:00.352Z,48.01
2018-08-23T05:46:00.384Z,51.29
2018-08-23T05:47:00.349Z,55.08
2018-08-23T05:48:00.384Z,59.83
2018-08-23T05:49:00.370Z,61.86
2018-08-23T05:50:00.407Z,63.50
2018-08-23T05:51:00.368Z,66.91
2018-08-23T05:52:00.438Z,70.29
2018-08-23T05:53:00.390Z,72.45
2018-08-23T05:54:00.380Z,70.14
2018-08-23T05:55:00.444Z,70.00
2018-08-23T05:56:00.379Z,70.78
2018-08-23T05:57:00.401Z,72.16
2018-08-23T05:58:00.393Z,68.26
2018-08-23T05:59:00.388Z,69.04
2018-08-23T06:00:00.409Z,70.10
2018-08-23T06:01:00.432Z,72.03
2018-08-23T06:02:00.437Z,71.84
2018-08-23T06:03:00.433Z,69.42
2018-08-23T06:04:00.422Z,70.00
2018-08-23T06:05:00.424Z,73.13
2018-08-23T06:06:01.545Z,77.19
2018-08-23T06:07:00.457Z,77.90
2018-08-23T06:08:00.467Z,81.48
2018-08-23T06:09:00.543Z,83.84
2018-08-23T06:10:00.442Z,87.65
2018-08-23T06:11:00.463Z,88.23
2018-08-23T06:12:00.645Z,89.01
2018-08-23T06:13:00.520Z,90.07
2018-08-23T06:14:00.497Z,91.14
2018-08-23T06:15:00.449Z,89.01
2018-08-23T06:16:00.475Z,89.20
2018-08-23T06:17:00.469Z,91.56
2018-08-23T06:18:00.504Z,90.12
2018-08-23T06:19:00.494Z,89.20
2018-08-23T06:20:00.716Z,90.84
2018-08-23T06:21:00.483Z,89.39
2018-08-23T06:22:01.421Z,90.41
2018-08-23T06:23:00.485Z,92.73
2018-08-23T06:24:00.904Z,92.24
2018-08-23T06:25:00.503Z,93.51
2018-08-23T06:26:00.499Z,94.13
2018-08-23T06:27:00.493Z,93.79
2018-08-23T06:28:00.523Z,91.86
2018-08-23T06:29:00.549Z,90.07
2018-08-23T06:30:00.533Z,88.53
2018-08-23T06:31:00.512Z,83.61
2018-08-23T06:32:00.542Z,81.67
2018-08-23T06:33:01.491Z,79.60
2018-08-23T06:34:00.593Z,79.16
2018-08-23T06:35:00.550Z,83.03
2018-08-23T06:36:00.551Z,84.57
2018-08-23T06:37:00.564Z,85.48
2018-08-23T06:38:00.551Z,85.29
2018-08-23T06:39:00.571Z,84.22
2018-08-23T06:40:00.632Z,86.25
2018-08-23T06:41:00.589Z,86.25
2018-08-23T06:42:00.612Z,87.85
2018-08-23T06:43:00.594Z,89.83
2018-08-23T06:44:00.585Z,90.89
2018-08-23T06:45:00.617Z,92.05
2018-08-23T06:46:00.611Z,89.49
2018-08-23T06:47:00.621Z,90.60
2018-08-23T06:48:00.605Z,94.66
2018-08-23T06:49:00.724Z,95.73
2018-08-23T06:50:00.691Z,97.18
2018-08-23T06:51:00.732Z,96.70
2018-08-23T06:52:00.677Z,96.31
2018-08-23T06:53:00.768Z,98.10
2018-08-23T06:54:00.703Z,97.03
2018-08-23T06:55:00.662Z,98.20
2018-08-23T06:56:00.674Z,98.39
2018-08-23T06:57:00.685Z,98.83
2018-08-23T06:58:00.688Z,99.75
2018-08-23T06:59:00.730Z,99.07
2018-08-23T07:00:00.674Z,99.07
2018-08-23T07:01:00.701Z,99.99
2018-08-23T07:02:00.695Z,99.99
2018-08-23T07:03:01.448Z,99.99
2018-08-23T07:04:00.724Z,99.99
2018-08-23T07:05:00.738Z,99.99
2018-08-23T07:06:00.764Z,99.99
2018-08-23T07:07:00.717Z,99.56
2018-08-23T07:08:00.824Z,98.63
2018-08-23T07:09:00.741Z,99.12
2018-08-23T07:10:00.746Z,99.99
2018-08-23T07:11:00.760Z,98.78
2018-08-23T07:12:00.759Z,98.93
2018-08-23T07:13:00.790Z,99.56
2018-08-23T07:14:00.766Z,99.41
2018-08-23T07:15:00.773Z,99.99
2018-08-23T07:16:00.865Z,99.90
2018-08-23T07:17:00.829Z,99.17
2018-08-23T07:18:00.830Z,97.17
2018-08-23T07:19:00.827Z,97.32
2018-08-23T07:20:00.837Z,95.52
2018-08-23T07:21:00.908Z,93.52
2018-08-23T07:22:00.893Z,93.42
2018-08-23T07:23:00.915Z,91.71
2018-08-23T07:24:00.873Z,91.95
2018-08-23T07:25:00.920Z,92.49
2018-08-23T07:26:00.891Z,92.69
2018-08-23T07:27:00.899Z,93.03
2018-08-23T07:28:01.318Z,93.18
2018-08-23T07:29:00.998Z,91.61
2018-08-23T07:30:01.059Z,90.63
2018-08-23T07:31:01.081Z,90.14
2018-08-23T07:32:00.969Z,86.87
2018-08-23T07:33:00.995Z,87.01
2018-08-23T07:34:00.972Z,88.33
2018-08-23T07:35:00.991Z,87.07
2018-08-23T07:36:01.019Z,86.82
2018-08-23T07:37:01.329Z,85.06
2018-08-23T07:38:01.061Z,86.33
2018-08-23T07:39:01.038Z,82.17
2018-08-23T07:40:01.122Z,81.13
2018-08-23T07:41:01.087Z,80.83
2018-08-23T07:42:01.069Z,80.83
2018-08-23T07:43:01.357Z,79.79
2018-08-23T07:44:01.149Z,81.45
2018-08-23T07:45:01.147Z,83.20
2018-08-23T07:46:01.081Z,83.70
2018-08-23T07:47:01.243Z,84.97
2018-08-23T07:48:01.089Z,84.09
2018-08-23T07:49:01.104Z,82.71
2018-08-23T07:50:01.110Z,83.02
2018-08-23T07:51:01.990Z,83.12
2018-08-23T07:52:01.145Z,82.63
2018-08-23T07:53:01.194Z,83.02
2018-08-23T07:54:01.208Z,81.45
2018-08-23T07:55:01.188Z,78.85
2018-08-23T07:56:01.207Z,78.45
2018-08-23T07:57:01.227Z,76.79
2018-08-23T07:58:01.348Z,80.33
2018-08-23T07:59:01.326Z,78.91
2018-08-23T08:00:01.267Z,78.71
2018-08-23T08:01:01.258Z,77.58
2018-08-23T08:02:01.345Z,77.67
2018-08-23T08:03:01.293Z,76.27
2018-08-23T08:04:02.007Z,77.73
2018-08-23T08:05:01.382Z,77.69
2018-08-23T08:06:01.385Z,78.67
2018-08-23T08:07:01.362Z,78.77
2018-08-23T08:08:02.000Z,78.13
2018-08-23T08:09:02.520Z,77.87
2018-08-23T08:10:01.451Z,76.34
2018-08-23T08:11:03.502Z,74.25
2018-08-23T08:12:02.034Z,77.05
2018-08-23T08:13:03.505Z,77.98
2018-08-23T08:14:05.000Z,82.43
2018-08-23T08:15:02.527Z,80.91
2018-08-23T08:16:02.074Z,78.65
2018-08-23T08:17:01.538Z,75.54
2018-08-23T08:18:01.500Z,75.37
2018-08-23T08:19:03.504Z,78.16
2018-08-23T08:20:01.526Z,77.25
2018-08-23T08:21:02.184Z,76.27
2018-08-23T08:22:02.011Z,77.54
2018-08-23T08:23:02.507Z,77.09
2018-08-23T08:24:02.551Z,77.15
2018-08-23T08:25:02.510Z,80.74
2018-08-23T08:26:02.081Z,80.00
2018-08-23T08:27:02.524Z,79.25
2018-08-23T08:28:02.615Z,79.90
2018-08-23T08:29:02.749Z,77.64
2018-08-23T08:30:02.578Z,78.38
2018-08-23T08:31:03.713Z,77.87
2018-08-23T08:32:02.621Z,75.50
2018-08-23T08:33:03.543Z,75.17
2018-08-23T08:34:02.619Z,74.26
2018-08-23T08:35:03.516Z,73.41
2018-08-23T08:36:02.681Z,72.89
2018-08-23T08:37:02.529Z,72.34
2018-08-23T08:38:03.538Z,71.75
2018-08-23T08:39:02.558Z,73.70
2018-08-23T08:40:02.661Z,73.48
2018-08-23T08:41:02.592Z,75.20
2018-08-23T08:42:04.116Z,74.91
2018-08-23T08:43:03.527Z,72.44
2018-08-23T08:44:02.787Z,71.92
2018-08-23T08:45:02.722Z,71.17
2018-08-23T08:46:02.754Z,71.36
2018-08-23T08:47:03.112Z,70.74
2018-08-23T08:48:05.522Z,70.12
2018-08-23T08:49:02.775Z,70.03
2018-08-23T08:50:01.944Z,70.58
2018-08-23T08:51:02.526Z,70.80
2018-08-23T08:52:02.078Z,70.70
2018-08-23T08:53:02.029Z,70.32
2018-08-23T08:54:02.010Z,69.24
2018-08-23T08:55:02.011Z,69.21
2018-08-23T08:56:02.035Z,69.96
2018-08-23T08:57:02.078Z,69.14
2018-08-23T08:58:02.101Z,70.21
2018-08-23T08:59:02.078Z,68.91
2018-08-23T09:00:02.078Z,69.57
2018-08-23T09:01:02.107Z,69.11
2018-08-23T09:02:02.113Z,67.87
2018-08-23T09:03:02.190Z,67.38
2018-08-23T09:04:03.243Z,68.26
2018-08-23T09:05:02.287Z,68.16
2018-08-23T09:06:02.196Z,67.38
2018-08-23T09:07:02.188Z,65.98
2018-08-23T09:08:02.249Z,66.27
2018-08-23T09:09:02.280Z,65.88
2018-08-23T09:10:02.246Z,65.94
2018-08-23T09:11:02.267Z,64.57
2018-08-23T09:12:02.593Z,63.92
2018-08-23T09:13:02.304Z,65.94
2018-08-23T09:14:02.411Z,64.77
2018-08-23T09:15:02.335Z,65.78
2018-08-23T09:16:03.046Z,66.96
2018-08-23T09:17:02.368Z,66.73
2018-08-23T09:18:03.274Z,67.02
2018-08-23T09:19:02.508Z,66.96
2018-08-23T09:20:02.454Z,66.56
2018-08-23T09:21:02.422Z,66.63
2018-08-23T09:22:02.470Z,65.48
2018-08-23T09:23:02.763Z,63.23
2018-08-23T09:24:03.583Z,62.41
2018-08-23T09:25:02.502Z,63.72
2018-08-23T09:26:03.107Z,63.04
2018-08-23T09:27:02.550Z,63.82
2018-08-23T09:28:02.548Z,64.51
2018-08-23T09:29:02.587Z,64.14
2018-08-23T09:30:02.611Z,64.25
2018-08-23T09:31:02.621Z,63.32
2018-08-23T09:32:02.720Z,64.14
2018-08-23T09:33:02.686Z,64.25
2018-08-23T09:34:02.744Z,64.47
2018-08-23T09:35:02.778Z,62.47
2018-08-23T09:36:02.759Z,63.98
2018-08-23T09:37:02.873Z,63.95
2018-08-23T09:38:02.778Z,63.75
2018-08-23T09:39:02.772Z,64.73
2018-08-23T09:40:03.207Z,65.00
2018-08-23T09:41:02.813Z,64.31
2018-08-23T09:42:02.812Z,64.37
2018-08-23T09:43:02.961Z,63.72
2018-08-23T09:44:02.979Z,64.51
2018-08-23T09:45:02.866Z,67.15
2018-08-23T09:46:02.868Z,64.51
2018-08-23T09:47:02.917Z,65.45
2018-08-23T09:48:03.178Z,65.00
2018-08-23T09:49:02.957Z,66.01
2018-08-23T09:50:03.041Z,64.18
2018-08-23T09:51:03.055Z,64.67
2018-08-23T09:52:02.995Z,65.85
2018-08-23T09:53:03.018Z,65.81
2018-08-23T09:54:03.129Z,63.66
2018-08-23T09:55:03.062Z,63.11
2018-08-23T09:56:03.184Z,65.06
2018-08-23T09:57:05.696Z,63.76
2018-08-23T09:58:03.119Z,62.58
2018-08-23T09:59:03.329Z,64.25
2018-08-23T10:00:03.223Z,62.54
2018-08-23T10:01:03.197Z,62.88
2018-08-23T10:02:03.165Z,62.98
2018-08-23T10:03:03.260Z,62.64
2018-08-23T10:04:03.227Z,62.12
2018-08-23T10:05:04.171Z,61.49
2018-08-23T10:06:03.259Z,61.52
2018-08-23T10:07:03.286Z,59.39
2018-08-23T10:08:03.300Z,59.68
2018-08-23T10:09:03.357Z,58.50
2018-08-23T10:10:03.335Z,60.34
2018-08-23T10:11:04.158Z,59.26
2018-08-23T10:12:03.569Z,59.59
2018-08-23T10:13:03.424Z,60.02
2018-08-23T10:14:03.418Z,59.28
2018-08-23T10:15:03.542Z,57.68
2018-08-23T10:16:03.471Z,59.86
2018-08-23T10:17:03.500Z,60.60
2018-08-23T10:18:03.493Z,60.55
2018-08-23T10:19:03.515Z,62.67
2018-08-23T10:20:03.516Z,63.23
2018-08-23T10:21:03.542Z,62.91
2018-08-23T10:22:03.567Z,65.42
2018-08-23T10:23:03.593Z,67.80
2018-08-23T10:24:03.721Z,69.43
2018-08-23T10:25:03.648Z,70.31
2018-08-23T10:26:03.645Z,70.67
2018-08-23T10:27:03.810Z,70.53
2018-08-23T10:28:03.727Z,71.80
2018-08-23T10:29:03.762Z,70.57
2018-08-23T10:30:03.707Z,67.97
2018-08-23T10:31:03.974Z,67.84
2018-08-23T10:32:03.732Z,65.98
2018-08-23T10:33:03.829Z,63.65
2018-08-23T10:34:04.674Z,62.70
2018-08-23T10:35:03.822Z,62.61
2018-08-23T10:36:03.893Z,66.73
2018-08-23T10:37:04.029Z,66.96
2018-08-23T10:38:03.920Z,65.36
2018-08-23T10:39:03.889Z,65.88
2018-08-23T10:40:03.905Z,67.22
2018-08-23T10:41:03.886Z,68.85
2018-08-23T10:42:03.930Z,69.11
2018-08-23T10:43:05.205Z,69.99
2018-08-23T10:44:04.290Z,69.56
2018-08-23T10:45:03.975Z,70.76
2018-08-23T10:46:04.019Z,71.70
2018-08-23T10:47:04.002Z,72.23
2018-08-23T10:48:04.694Z,71.00
2018-08-23T10:49:04.050Z,70.09
2018-08-23T10:50:04.046Z,68.95
2018-08-23T10:51:04.086Z,68.16
2018-08-23T10:52:04.231Z,68.23
2018-08-23T10:53:04.146Z,69.95
2018-08-23T10:54:04.685Z,69.95
2018-08-23T10:55:04.155Z,70.21
2018-08-23T10:56:04.136Z,70.15
2018-08-23T10:57:04.174Z,69.99
2018-08-23T10:58:04.214Z,71.19
2018-08-23T10:59:04.221Z,70.48
2018-08-23T11:00:04.213Z,69.37
2018-08-23T11:01:04.226Z,66.66
2018-08-23T11:02:04.219Z,67.12
2018-08-23T11:03:04.217Z,68.49
2018-08-23T11:04:05.200Z,68.95
2018-08-23T11:05:04.255Z,67.44
2018-08-23T11:06:04.301Z,67.38
2018-08-23T11:07:04.283Z,66.04
2018-08-23T11:08:04.375Z,64.73
2018-08-23T11:09:04.385Z,65.88
2018-08-23T11:10:04.329Z,66.50
2018-08-23T11:11:04.820Z,67.68
2018-08-23T11:12:05.201Z,69.11
2018-08-23T11:13:04.373Z,70.61
2018-08-23T11:14:04.370Z,72.29
2018-08-23T11:15:04.433Z,74.05
2018-08-23T11:16:04.543Z,73.11
2018-08-23T11:17:04.596Z,72.66
2018-08-23T11:18:04.457Z,72.20
2018-08-23T11:19:04.459Z,70.73
2018-08-23T11:20:04.466Z,72.62
2018-08-23T11:21:04.566Z,73.14
2018-08-23T11:22:04.765Z,72.56
2018-08-23T11:23:04.592Z,71.64
2018-08-23T11:24:04.596Z,74.24
2018-08-23T11:25:04.512Z,74.15
2018-08-23T11:26:04.569Z,73.95
2018-08-23T11:27:04.623Z,74.34
2018-08-23T11:28:04.704Z,74.21
2018-08-23T11:29:04.711Z,74.98
2018-08-23T11:30:04.683Z,75.24
2018-08-23T11:31:04.630Z,75.98
2018-08-23T11:32:04.661Z,77.60
2018-08-23T11:33:04.767Z,79.22
2018-08-23T11:34:04.888Z,80.04
2018-08-23T11:35:04.758Z,78.77
2018-08-23T11:36:04.686Z,79.16
2018-08-23T11:37:04.744Z,78.55
2018-08-23T11:38:04.698Z,78.22
2018-08-23T11:39:04.814Z,78.03
2018-08-23T11:40:04.762Z,76.93
2018-08-23T11:41:04.843Z,74.83
2018-08-23T11:42:04.914Z,74.96
2018-08-23T11:43:05.718Z,74.61
2018-08-23T11:44:05.397Z,74.22
2018-08-23T11:45:05.385Z,74.08
2018-08-23T11:46:04.850Z,73.95
2018-08-23T11:47:04.832Z,74.11
2018-08-23T11:48:05.539Z,75.21
2018-08-23T11:49:04.886Z,74.83
2018-08-23T11:50:05.348Z,75.18
2018-08-23T11:51:04.849Z,75.18
2018-08-23T11:52:04.972Z,74.98
2018-08-23T11:53:05.450Z,73.52
2018-08-23T11:54:05.121Z,72.61
2018-08-23T11:55:04.981Z,73.94
2018-08-23T11:56:05.028Z,74.76
2018-08-23T11:57:05.081Z,75.30
2018-08-23T11:58:05.047Z,75.10
2018-08-23T11:59:04.965Z,76.43
2018-08-23T12:00:05.728Z,77.25
2018-08-23T12:01:07.895Z,76.67
2018-08-23T12:02:04.975Z,76.90
2018-08-23T12:03:05.280Z,74.89
2018-08-23T12:04:05.862Z,74.54
2018-08-23T12:05:04.994Z,74.44
2018-08-23T12:06:05.164Z,74.63
2018-08-23T12:07:06.457Z,74.73
2018-08-23T12:08:05.236Z,75.18
2018-08-23T12:09:05.328Z,74.73
2018-08-23T12:10:05.092Z,74.15
2018-08-23T12:11:05.033Z,74.40
2018-08-23T12:12:05.982Z,75.18
2018-08-23T12:13:05.138Z,75.37
2018-08-23T12:14:05.057Z,74.44
2018-08-23T12:15:05.058Z,73.95
2018-08-23T12:16:05.098Z,74.34
2018-08-23T12:17:05.087Z,74.08
2018-08-23T12:18:05.065Z,74.48
2018-08-23T12:19:05.704Z,73.30
2018-08-23T12:20:05.265Z,73.66
2018-08-23T12:21:05.160Z,74.28
2018-08-23T12:22:05.739Z,73.75
2018-08-23T12:23:05.237Z,74.11
2018-08-23T12:24:05.207Z,74.89
2018-08-23T12:25:05.197Z,75.67
2018-08-23T12:26:05.327Z,75.57
2018-08-23T12:27:05.146Z,76.29
2018-08-23T12:28:05.165Z,76.35
2018-08-23T12:29:05.553Z,75.30
2018-08-23T12:30:05.172Z,76.70
2018-08-23T12:31:05.331Z,75.47
2018-08-23T12:32:05.285Z,75.67
2018-08-23T12:33:05.267Z,75.02
2018-08-23T12:34:05.266Z,74.18
2018-08-23T12:35:05.281Z,73.11
2018-08-23T12:36:05.244Z,74.28
2018-08-23T12:37:05.271Z,75.37
2018-08-23T12:38:05.326Z,75.43
2018-08-23T12:39:05.308Z,75.53
2018-08-23T12:40:05.342Z,74.76
2018-08-23T12:41:05.417Z,75.14
2018-08-23T12:42:05.314Z,77.15
2018-08-23T12:43:06.253Z,77.39
2018-08-23T12:44:05.384Z,76.61
2018-08-23T12:45:05.369Z,76.64
2018-08-23T12:46:05.468Z,76.25
2018-08-23T12:47:05.449Z,76.58
2018-08-23T12:48:06.261Z,76.64
2018-08-23T12:49:05.487Z,77.78
2018-08-23T12:50:05.407Z,78.55
2018-08-23T12:51:05.540Z,78.22
2018-08-23T12:52:05.410Z,79.84
2018-08-23T12:53:05.439Z,81.16
2018-08-23T12:54:05.419Z,81.69
2018-08-23T12:55:05.431Z,81.73
2018-08-23T12:56:05.406Z,79.53
2018-08-23T12:57:05.497Z,78.75